| Date | Time | Temp. (oF) | Dew Point (oF) | Rel. Hum. (%) | Press. (in.) | Wind Dir. | Wind Speed (mph) | Hourly Rainfall (in.) |
|
|---|---|---|---|---|---|---|---|---|---|
| 1 | 02/18 | 00:00 | 32 | 28 | 85 | 30.09 | NNE | 1 | 0.00 |
| 2 | 02/17 | 23:00 | 30 | 27 | 92 | 30.07 | WSW | 2 | 0.00 |
| 3 | 02/17 | 22:00 | 32 | 28 | 88 | 30.08 | WSW | 1 | 0.00 |
| 4 | 02/17 | 21:00 | 34 | 29 | 83 | 30.07 | WSW | 0 | 0.00 |
| 5 | 02/17 | 20:00 | 38 | 27 | 66 | 30.07 | WSW | 2 | 0.00 |
| 6 | 02/17 | 19:00 | 41 | 26 | 55 | 30.05 | WSW | 3 | 0.00 |
| 7 | 02/17 | 18:00 | 44 | 26 | 51 | 30.04 | NW | 5 | 0.00 |
| 8 | 02/17 | 17:00 | 46 | 25 | 45 | 30.02 | NW | 6 | 0.00 |
| 9 | 02/17 | 16:00 | 47 | 26 | 44 | 30.01 | N | 11 | 0.00 |
| 10 | 02/17 | 15:00 | 48 | 27 | 44 | 30.00 | WNW | 4 | 0.00 |
| 11 | 02/17 | 14:00 | 47 | 25 | 43 | 30.02 | WNW | 19 | 0.00 |
| 12 | 02/17 | 13:00 | 46 | 26 | 46 | 30.04 | N | 7 | 0.00 |
| 13 | 02/17 | 12:00 | 46 | 27 | 48 | 30.07 | NW | 6 | 0.00 |
| 14 | 02/17 | 11:00 | 45 | 29 | 54 | 30.09 | WNW | 10 | 0.00 |
| 15 | 02/17 | 10:00 | 44 | 35 | 73 | 30.09 | W | 13 | 0.00 |
| 16 | 02/17 | 09:00 | 42 | 37 | 83 | 30.09 | N | 7 | 0.00 |
| 17 | 02/17 | 08:00 | 39 | 39 | 100 | 30.10 | S | 3 | 0.00 |
| 18 | 02/17 | 07:00 | 40 | 40 | 100 | 30.07 | WSW | 4 | 0.00 |
| 19 | 02/17 | 06:00 | 40 | 40 | 100 | 30.06 | SSW | 3 | 0.00 |
| 20 | 02/17 | 05:00 | 39 | 39 | 100 | 30.03 | W | 4 | 0.01 |
| 21 | 02/17 | 04:00 | 39 | 39 | 100 | 30.01 | WNW | 1 | 0.00 |
| 22 | 02/17 | 03:00 | 40 | 40 | 100 | 30.00 | S | 0 | 0.00 |
| 23 | 02/17 | 02:00 | 40 | 40 | 100 | 30.01 | S | 0 | 0.00 |
| 24 | 02/17 | 01:00 | 40 | 40 | 100 | 30.01 | SSE | 3 | 0.00 |